sensor_id;sensor_type;location;lat;lon;timestamp;temperature;humidity
18753;DHT22;9505;50.882;5.350;2023-07-08T00:00:12;18.10;99.90
18753;DHT22;9505;50.882;5.350;2023-07-08T00:02:40;18.10;99.90
18753;DHT22;9505;50.882;5.350;2023-07-08T00:05:12;18.00;99.90
18753;DHT22;9505;50.882;5.350;2023-07-08T00:07:38;17.90;99.90
18753;DHT22;9505;50.882;5.350;2023-07-08T00:10:11;17.90;99.90
18753;DHT22;9505;50.882;5.350;2023-07-08T00:12:37;17.80;99.90
18753;DHT22;9505;50.882;5.350;2023-07-08T00:15:03;17.80;99.90
18753;DHT22;9505;50.882;5.350;2023-07-08T00:17:30;17.80;99.90
18753;DHT22;9505;50.882;5.350;2023-07-08T00:19:56;17.70;99.90
18753;DHT22;9505;50.882;5.350;2023-07-08T00:22:21;17.70;99.90
18753;DHT22;9505;50.882;5.350;2023-07-08T00:24:50;17.60;99.90
18753;DHT22;9505;50.882;5.350;2023-07-08T00:27:16;17.50;99.90
18753;DHT22;9505;50.882;5.350;2023-07-08T00:29:41;17.50;99.90
18753;DHT22;9505;50.882;5.350;2023-07-08T00:32:13;17.50;99.90
18753;DHT22;9505;50.882;5.350;2023-07-08T00:34:39;17.40;99.90
18753;DHT22;9505;50.882;5.350;2023-07-08T00:37:05;17.40;99.90
18753;DHT22;9505;50.882;5.350;2023-07-08T00:39:32;17.30;99.90
18753;DHT22;9505;50.882;5.350;2023-07-08T00:42:00;17.30;99.90
18753;DHT22;9505;50.882;5.350;2023-07-08T00:44:26;17.20;99.90
18753;DHT22;9505;50.882;5.350;2023-07-08T00:46:56;17.10;99.90
18753;DHT22;9505;50.882;5.350;2023-07-08T00:51:48;17.10;99.90
18753;DHT22;9505;50.882;5.350;2023-07-08T00:54:18;17.10;99.90
18753;DHT22;9505;50.882;5.350;2023-07-08T01:01:54;16.90;99.90
18753;DHT22;9505;50.882;5.350;2023-07-08T01:04:49;16.90;99.90
18753;DHT22;9505;50.882;5.350;2023-07-08T01:07:15;16.90;99.90
18753;DHT22;9505;50.882;5.350;2023-07-08T01:09:49;16.80;99.90
18753;DHT22;9505;50.882;5.350;2023-07-08T01:12:20;16.80;99.90
18753;DHT22;9505;50.882;5.350;2023-07-08T01:14:47;16.80;99.90
18753;DHT22;9505;50.882;5.350;2023-07-08T01:17:13;16.70;99.90
18753;DHT22;9505;50.882;5.350;2023-07-08T01:19:43;16.70;99.90
18753;DHT22;9505;50.882;5.350;2023-07-08T01:22:09;16.70;99.90
18753;DHT22;9505;50.882;5.350;2023-07-08T01:24:37;16.60;99.90
18753;DHT22;9505;50.882;5.350;2023-07-08T01:27:06;16.60;99.90
18753;DHT22;9505;50.882;5.350;2023-07-08T01:29:32;16.60;99.90
18753;DHT22;9505;50.882;5.350;2023-07-08T01:31:58;16.50;99.90
18753;DHT22;9505;50.882;5.350;2023-07-08T01:34:29;16.50;99.90
18753;DHT22;9505;50.882;5.350;2023-07-08T01:36:56;16.50;99.90
18753;DHT22;9505;50.882;5.350;2023-07-08T01:39:24;16.50;99.90
18753;DHT22;9505;50.882;5.350;2023-07-08T01:41:51;16.40;99.90
18753;DHT22;9505;50.882;5.350;2023-07-08T01:46:49;16.40;99.90
18753;DHT22;9505;50.882;5.350;2023-07-08T01:49:16;16.30;99.90
18753;DHT22;9505;50.882;5.350;2023-07-08T01:51:42;16.30;99.90
18753;DHT22;9505;50.882;5.350;2023-07-08T01:54:07;16.30;99.90
18753;DHT22;9505;50.882;5.350;2023-07-08T01:56:33;16.20;99.90
18753;DHT22;9505;50.882;5.350;2023-07-08T01:58:59;16.20;99.90
18753;DHT22;9505;50.882;5.350;2023-07-08T02:01:24;16.20;99.90
18753;DHT22;9505;50.882;5.350;2023-07-08T02:03:50;16.20;99.90
18753;DHT22;9505;50.882;5.350;2023-07-08T02:06:15;16.20;99.90
18753;DHT22;9505;50.882;5.350;2023-07-08T02:08:41;16.20;99.90
18753;DHT22;9505;50.882;5.350;2023-07-08T02:11:07;16.20;99.90
18753;DHT22;9505;50.882;5.350;2023-07-08T02:13:32;16.10;99.90
18753;DHT22;9505;50.882;5.350;2023-07-08T02:15:58;16.10;99.90
18753;DHT22;9505;50.882;5.350;2023-07-08T02:18:23;16.00;99.90
18753;DHT22;9505;50.882;5.350;2023-07-08T02:20:50;16.00;99.90
18753;DHT22;9505;50.882;5.350;2023-07-08T02:23:16;16.00;99.90
18753;DHT22;9505;50.882;5.350;2023-07-08T02:25:41;15.90;99.90
18753;DHT22;9505;50.882;5.350;2023-07-08T02:28:15;15.90;99.90
18753;DHT22;9505;50.882;5.350;2023-07-08T02:30:40;15.80;99.90
18753;DHT22;9505;50.882;5.350;2023-07-08T02:33:06;15.80;99.90
18753;DHT22;9505;50.882;5.350;2023-07-08T02:35:31;15.80;99.90
18753;DHT22;9505;50.882;5.350;2023-07-08T02:37:57;15.70;99.90
18753;DHT22;9505;50.882;5.350;2023-07-08T02:40:23;15.80;99.90
18753;DHT22;9505;50.882;5.350;2023-07-08T02:42:49;15.80;99.90
18753;DHT22;9505;50.882;5.350;2023-07-08T02:45:16;15.80;99.90
18753;DHT22;9505;50.882;5.350;2023-07-08T02:47:42;15.70;99.90
18753;DHT22;9505;50.882;5.350;2023-07-08T02:50:09;15.70;99.90
18753;DHT22;9505;50.882;5.350;2023-07-08T02:52:35;15.80;99.90
18753;DHT22;9505;50.882;5.350;2023-07-08T02:55:01;15.80;99.90
18753;DHT22;9505;50.882;5.350;2023-07-08T02:57:27;15.80;99.90
18753;DHT22;9505;50.882;5.350;2023-07-08T02:59:53;15.80;99.90
18753;DHT22;9505;50.882;5.350;2023-07-08T03:02:18;15.80;99.90
18753;DHT22;9505;50.882;5.350;2023-07-08T03:04:44;15.80;99.90
18753;DHT22;9505;50.882;5.350;2023-07-08T03:07:10;15.70;99.90
18753;DHT22;9505;50.882;5.350;2023-07-08T03:09:39;15.70;99.90
18753;DHT22;9505;50.882;5.350;2023-07-08T03:12:07;15.80;99.90
18753;DHT22;9505;50.882;5.350;2023-07-08T03:14:33;15.80;99.90
18753;DHT22;9505;50.882;5.350;2023-07-08T03:16:58;15.90;99.90
18753;DHT22;9505;50.882;5.350;2023-07-08T03:19:24;16.00;99.90
18753;DHT22;9505;50.882;5.350;2023-07-08T03:21:51;16.10;99.90
18753;DHT22;9505;50.882;5.350;2023-07-08T03:24:16;16.10;99.90
18753;DHT22;9505;50.882;5.350;2023-07-08T03:26:43;16.20;99.90
18753;DHT22;9505;50.882;5.350;2023-07-08T03:29:14;16.20;99.90
18753;DHT22;9505;50.882;5.350;2023-07-08T03:31:40;16.20;99.90
18753;DHT22;9505;50.882;5.350;2023-07-08T03:34:14;16.20;99.90
18753;DHT22;9505;50.882;5.350;2023-07-08T03:36:46;16.20;99.90
18753;DHT22;9505;50.882;5.350;2023-07-08T03:39:18;16.20;99.90
18753;DHT22;9505;50.882;5.350;2023-07-08T03:41:44;16.20;99.90
18753;DHT22;9505;50.882;5.350;2023-07-08T03:44:10;16.10;99.90
18753;DHT22;9505;50.882;5.350;2023-07-08T03:46:36;16.00;99.90
18753;DHT22;9505;50.882;5.350;2023-07-08T03:49:02;16.00;99.90
18753;DHT22;9505;50.882;5.350;2023-07-08T03:51:31;15.90;99.90
18753;DHT22;9505;50.882;5.350;2023-07-08T03:53:57;16.00;99.90
18753;DHT22;9505;50.882;5.350;2023-07-08T03:56:23;15.90;99.90
18753;DHT22;9505;50.882;5.350;2023-07-08T03:58:50;15.90;99.90
18753;DHT22;9505;50.882;5.350;2023-07-08T04:01:21;15.80;99.90
18753;DHT22;9505;50.882;5.350;2023-07-08T04:03:47;15.80;99.90
18753;DHT22;9505;50.882;5.350;2023-07-08T04:06:14;15.80;99.90
18753;DHT22;9505;50.882;5.350;2023-07-08T04:08:40;15.80;99.90
18753;DHT22;9505;50.882;5.350;2023-07-08T04:11:06;15.80;99.90
18753;DHT22;9505;50.882;5.350;2023-07-08T04:13:32;15.80;99.90
18753;DHT22;9505;50.882;5.350;2023-07-08T04:16:02;15.80;99.90
18753;DHT22;9505;50.882;5.350;2023-07-08T04:18:29;15.80;99.90
18753;DHT22;9505;50.882;5.350;2023-07-08T04:20:55;15.90;99.90
18753;DHT22;9505;50.882;5.350;2023-07-08T04:23:21;15.90;99.90
18753;DHT22;9505;50.882;5.350;2023-07-08T04:25:48;15.90;99.90
18753;DHT22;9505;50.882;5.350;2023-07-08T04:28:14;15.90;99.90
18753;DHT22;9505;50.882;5.350;2023-07-08T04:30:41;16.00;99.90
18753;DHT22;9505;50.882;5.350;2023-07-08T04:33:11;16.00;99.90
18753;DHT22;9505;50.882;5.350;2023-07-08T04:35:37;16.10;99.90
18753;DHT22;9505;50.882;5.350;2023-07-08T04:41:01;16.20;99.90
18753;DHT22;9505;50.882;5.350;2023-07-08T04:43:27;16.40;99.90
18753;DHT22;9505;50.882;5.350;2023-07-08T04:45:54;16.40;99.90
18753;DHT22;9505;50.882;5.350;2023-07-08T04:48:21;16.50;99.90
18753;DHT22;9505;50.882;5.350;2023-07-08T04:50:49;16.60;99.90
18753;DHT22;9505;50.882;5.350;2023-07-08T04:53:16;16.60;99.90
18753;DHT22;9505;50.882;5.350;2023-07-08T04:55:51;16.80;99.90
18753;DHT22;9505;50.882;5.350;2023-07-08T04:58:18;16.90;99.90
18753;DHT22;9505;50.882;5.350;2023-07-08T05:00:43;17.00;99.90
18753;DHT22;9505;50.882;5.350;2023-07-08T05:03:09;17.10;99.90
18753;DHT22;9505;50.882;5.350;2023-07-08T05:05:34;17.30;99.90
18753;DHT22;9505;50.882;5.350;2023-07-08T05:08:00;17.40;99.90
18753;DHT22;9505;50.882;5.350;2023-07-08T05:10:26;17.50;99.90
18753;DHT22;9505;50.882;5.350;2023-07-08T05:12:52;17.60;99.90
18753;DHT22;9505;50.882;5.350;2023-07-08T05:15:17;17.70;99.90
18753;DHT22;9505;50.882;5.350;2023-07-08T05:17:43;17.90;99.90
18753;DHT22;9505;50.882;5.350;2023-07-08T05:20:12;18.10;99.90
18753;DHT22;9505;50.882;5.350;2023-07-08T05:22:38;18.20;99.90
18753;DHT22;9505;50.882;5.350;2023-07-08T05:25:05;18.50;99.90
18753;DHT22;9505;50.882;5.350;2023-07-08T05:27:31;18.70;99.90
18753;DHT22;9505;50.882;5.350;2023-07-08T05:29:59;19.00;99.90
18753;DHT22;9505;50.882;5.350;2023-07-08T05:32:25;19.20;99.90
18753;DHT22;9505;50.882;5.350;2023-07-08T05:34:51;19.50;99.90
18753;DHT22;9505;50.882;5.350;2023-07-08T05:37:17;19.70;99.90
18753;DHT22;9505;50.882;5.350;2023-07-08T05:39:46;19.90;99.90
18753;DHT22;9505;50.882;5.350;2023-07-08T05:42:12;20.60;99.90
18753;DHT22;9505;50.882;5.350;2023-07-08T05:44:37;23.10;99.90
18753;DHT22;9505;50.882;5.350;2023-07-08T05:47:03;25.50;99.90
18753;DHT22;9505;50.882;5.350;2023-07-08T05:49:29;27.60;99.90
18753;DHT22;9505;50.882;5.350;2023-07-08T05:51:54;29.20;99.90
18753;DHT22;9505;50.882;5.350;2023-07-08T05:54:20;30.30;99.90
18753;DHT22;9505;50.882;5.350;2023-07-08T05:56:46;31.20;99.90
18753;DHT22;9505;50.882;5.350;2023-07-08T05:59:11;31.70;99.90
18753;DHT22;9505;50.882;5.350;2023-07-08T06:01:37;32.20;98.30
18753;DHT22;9505;50.882;5.350;2023-07-08T06:04:03;32.80;97.40
18753;DHT22;9505;50.882;5.350;2023-07-08T06:06:29;33.70;96.00
18753;DHT22;9505;50.882;5.350;2023-07-08T06:08:54;34.40;94.10
18753;DHT22;9505;50.882;5.350;2023-07-08T06:11:20;35.00;91.90
18753;DHT22;9505;50.882;5.350;2023-07-08T06:13:47;35.40;90.90
18753;DHT22;9505;50.882;5.350;2023-07-08T06:16:13;36.00;88.40
18753;DHT22;9505;50.882;5.350;2023-07-08T06:18:39;36.60;84.20
18753;DHT22;9505;50.882;5.350;2023-07-08T06:21:05;36.80;82.50
18753;DHT22;9505;50.882;5.350;2023-07-08T06:23:31;36.70;78.00
18753;DHT22;9505;50.882;5.350;2023-07-08T06:25:57;36.40;76.40
18753;DHT22;9505;50.882;5.350;2023-07-08T06:28:23;36.00;77.80
18753;DHT22;9505;50.882;5.350;2023-07-08T06:30:48;35.70;77.90
18753;DHT22;9505;50.882;5.350;2023-07-08T06:33:14;35.70;77.10
18753;DHT22;9505;50.882;5.350;2023-07-08T06:35:40;36.00;77.40
18753;DHT22;9505;50.882;5.350;2023-07-08T06:38:06;36.40;76.30
18753;DHT22;9505;50.882;5.350;2023-07-08T06:40:33;36.70;72.60
18753;DHT22;9505;50.882;5.350;2023-07-08T06:42:59;36.20;76.30
18753;DHT22;9505;50.882;5.350;2023-07-08T06:45:24;36.40;72.00
18753;DHT22;9505;50.882;5.350;2023-07-08T06:47:50;36.10;75.60
18753;DHT22;9505;50.882;5.350;2023-07-08T06:50:16;35.70;73.40
18753;DHT22;9505;50.882;5.350;2023-07-08T06:52:41;35.70;75.90
18753;DHT22;9505;50.882;5.350;2023-07-08T06:55:09;35.90;76.10
18753;DHT22;9505;50.882;5.350;2023-07-08T06:57:35;35.90;75.60
18753;DHT22;9505;50.882;5.350;2023-07-08T07:00:04;36.20;74.90
18753;DHT22;9505;50.882;5.350;2023-07-08T07:02:29;36.70;76.20
18753;DHT22;9505;50.882;5.350;2023-07-08T07:04:55;37.20;73.20
18753;DHT22;9505;50.882;5.350;2023-07-08T07:07:21;37.60;71.30
18753;DHT22;9505;50.882;5.350;2023-07-08T07:09:46;37.90;73.80
18753;DHT22;9505;50.882;5.350;2023-07-08T07:12:12;38.90;69.00
18753;DHT22;9505;50.882;5.350;2023-07-08T07:14:37;38.20;68.40
18753;DHT22;9505;50.882;5.350;2023-07-08T07:17:03;37.60;69.20
18753;DHT22;9505;50.882;5.350;2023-07-08T07:19:29;37.50;69.10
18753;DHT22;9505;50.882;5.350;2023-07-08T07:21:54;37.50;69.60
18753;DHT22;9505;50.882;5.350;2023-07-08T07:24:20;37.50;66.80
18753;DHT22;9505;50.882;5.350;2023-07-08T07:26:46;37.60;69.70
18753;DHT22;9505;50.882;5.350;2023-07-08T07:29:13;38.50;68.50
18753;DHT22;9505;50.882;5.350;2023-07-08T07:31:39;39.40;68.20
18753;DHT22;9505;50.882;5.350;2023-07-08T07:34:05;40.60;64.20
18753;DHT22;9505;50.882;5.350;2023-07-08T07:36:30;41.50;61.90
18753;DHT22;9505;50.882;5.350;2023-07-08T07:38:56;41.90;59.70
18753;DHT22;9505;50.882;5.350;2023-07-08T07:41:22;41.60;58.80
18753;DHT22;9505;50.882;5.350;2023-07-08T07:43:48;41.70;61.40
18753;DHT22;9505;50.882;5.350;2023-07-08T07:46:14;41.90;59.40
18753;DHT22;9505;50.882;5.350;2023-07-08T07:48:40;42.40;58.80
18753;DHT22;9505;50.882;5.350;2023-07-08T07:51:06;42.60;59.10
18753;DHT22;9505;50.882;5.350;2023-07-08T07:53:36;42.20;56.20
18753;DHT22;9505;50.882;5.350;2023-07-08T07:56:03;41.80;58.70
18753;DHT22;9505;50.882;5.350;2023-07-08T07:58:30;41.10;56.90
18753;DHT22;9505;50.882;5.350;2023-07-08T08:00:56;41.10;59.20
18753;DHT22;9505;50.882;5.350;2023-07-08T08:03:22;41.30;59.60
18753;DHT22;9505;50.882;5.350;2023-07-08T08:05:48;41.20;58.30
18753;DHT22;9505;50.882;5.350;2023-07-08T08:08:15;41.00;55.60
18753;DHT22;9505;50.882;5.350;2023-07-08T08:10:42;39.70;60.50
18753;DHT22;9505;50.882;5.350;2023-07-08T08:13:07;38.50;60.00
18753;DHT22;9505;50.882;5.350;2023-07-08T08:15:34;37.40;65.80
18753;DHT22;9505;50.882;5.350;2023-07-08T08:17:59;35.90;62.60
18753;DHT22;9505;50.882;5.350;2023-07-08T08:20:25;34.00;70.10
18753;DHT22;9505;50.882;5.350;2023-07-08T08:22:51;33.50;73.70
18753;DHT22;9505;50.882;5.350;2023-07-08T08:25:19;33.10;68.30
18753;DHT22;9505;50.882;5.350;2023-07-08T08:27:45;32.60;71.30
18753;DHT22;9505;50.882;5.350;2023-07-08T08:30:11;32.70;67.30
18753;DHT22;9505;50.882;5.350;2023-07-08T08:32:37;32.20;72.00
18753;DHT22;9505;50.882;5.350;2023-07-08T08:35:03;32.30;70.70
18753;DHT22;9505;50.882;5.350;2023-07-08T08:37:29;32.30;70.00
18753;DHT22;9505;50.882;5.350;2023-07-08T08:39:55;32.30;70.20
18753;DHT22;9505;50.882;5.350;2023-07-08T08:42:44;32.70;72.00
18753;DHT22;9505;50.882;5.350;2023-07-08T08:45:15;33.00;72.20
18753;DHT22;9505;50.882;5.350;2023-07-08T08:47:48;33.10;72.60
18753;DHT22;9505;50.882;5.350;2023-07-08T08:52:43;33.20;71.70
18753;DHT22;9505;50.882;5.350;2023-07-08T08:55:14;33.50;74.50
18753;DHT22;9505;50.882;5.350;2023-07-08T09:00:31;33.50;74.50
18753;DHT22;9505;50.882;5.350;2023-07-08T09:03:04;33.60;77.00
18753;DHT22;9505;50.882;5.350;2023-07-08T09:05:33;33.30;73.30
18753;DHT22;9505;50.882;5.350;2023-07-08T09:08:16;32.90;73.60
18753;DHT22;9505;50.882;5.350;2023-07-08T09:10:48;32.90;76.50
18753;DHT22;9505;50.882;5.350;2023-07-08T09:13:24;33.30;80.70
18753;DHT22;9505;50.882;5.350;2023-07-08T09:19:13;33.40;74.70
18753;DHT22;9505;50.882;5.350;2023-07-08T09:21:48;33.40;76.60
18753;DHT22;9505;50.882;5.350;2023-07-08T09:24:21;33.20;76.00
18753;DHT22;9505;50.882;5.350;2023-07-08T09:26:51;33.30;79.90
18753;DHT22;9505;50.882;5.350;2023-07-08T09:29:17;33.60;78.20
18753;DHT22;9505;50.882;5.350;2023-07-08T09:31:43;34.00;76.60
18753;DHT22;9505;50.882;5.350;2023-07-08T09:34:13;34.30;77.80
18753;DHT22;9505;50.882;5.350;2023-07-08T09:36:47;34.30;75.80
18753;DHT22;9505;50.882;5.350;2023-07-08T09:39:22;34.30;78.30
18753;DHT22;9505;50.882;5.350;2023-07-08T09:41:49;34.10;75.90
18753;DHT22;9505;50.882;5.350;2023-07-08T09:46:43;34.50;78.30
18753;DHT22;9505;50.882;5.350;2023-07-08T09:51:46;34.30;74.90
18753;DHT22;9505;50.882;5.350;2023-07-08T09:54:12;34.20;75.20
18753;DHT22;9505;50.882;5.350;2023-07-08T09:56:55;34.10;80.90
18753;DHT22;9505;50.882;5.350;2023-07-08T09:59:26;33.90;77.40
18753;DHT22;9505;50.882;5.350;2023-07-08T10:01:53;33.80;78.20
18753;DHT22;9505;50.882;5.350;2023-07-08T10:04:19;33.80;74.10
18753;DHT22;9505;50.882;5.350;2023-07-08T10:06:45;33.90;75.30
18753;DHT22;9505;50.882;5.350;2023-07-08T10:09:20;34.30;76.30
18753;DHT22;9505;50.882;5.350;2023-07-08T10:11:51;34.00;76.40
18753;DHT22;9505;50.882;5.350;2023-07-08T10:16:54;34.40;75.40
18753;DHT22;9505;50.882;5.350;2023-07-08T10:19:21;34.50;74.20
18753;DHT22;9505;50.882;5.350;2023-07-08T10:27:39;34.90;74.60
18753;DHT22;9505;50.882;5.350;2023-07-08T10:35:19;35.50;76.10
18753;DHT22;9505;50.882;5.350;2023-07-08T10:54:08;35.00;76.00
18753;DHT22;9505;50.882;5.350;2023-07-08T11:05:23;35.70;79.50
18753;DHT22;9505;50.882;5.350;2023-07-08T11:07:57;35.70;73.10
18753;DHT22;9505;50.882;5.350;2023-07-08T11:10:40;36.10;76.30
18753;DHT22;9505;50.882;5.350;2023-07-08T11:13:13;36.10;79.30
18753;DHT22;9505;50.882;5.350;2023-07-08T11:18:36;35.70;78.60
18753;DHT22;9505;50.882;5.350;2023-07-08T11:21:14;36.10;75.10
18753;DHT22;9505;50.882;5.350;2023-07-08T11:23:46;36.30;76.80
18753;DHT22;9505;50.882;5.350;2023-07-08T11:28:45;35.80;79.60
18753;DHT22;9505;50.882;5.350;2023-07-08T11:31:11;35.80;77.80
18753;DHT22;9505;50.882;5.350;2023-07-08T11:33:39;35.90;80.00
18753;DHT22;9505;50.882;5.350;2023-07-08T11:36:05;36.10;72.40
18753;DHT22;9505;50.882;5.350;2023-07-08T11:38:33;36.20;72.60
18753;DHT22;9505;50.882;5.350;2023-07-08T11:43:33;36.40;75.20
18753;DHT22;9505;50.882;5.350;2023-07-08T11:46:04;36.50;79.80
18753;DHT22;9505;50.882;5.350;2023-07-08T11:48:38;36.30;75.90
18753;DHT22;9505;50.882;5.350;2023-07-08T11:51:05;36.00;72.20
18753;DHT22;9505;50.882;5.350;2023-07-08T11:53:38;35.90;70.90
18753;DHT22;9505;50.882;5.350;2023-07-08T11:58:50;36.60;74.00
18753;DHT22;9505;50.882;5.350;2023-07-08T12:01:22;36.80;71.10
18753;DHT22;9505;50.882;5.350;2023-07-08T12:08:58;36.80;74.70
18753;DHT22;9505;50.882;5.350;2023-07-08T12:11:27;36.90;71.20
18753;DHT22;9505;50.882;5.350;2023-07-08T12:13:55;36.70;73.90
18753;DHT22;9505;50.882;5.350;2023-07-08T12:16:24;36.30;76.40
18753;DHT22;9505;50.882;5.350;2023-07-08T12:18:50;36.50;81.30
18753;DHT22;9505;50.882;5.350;2023-07-08T12:21:16;37.00;79.20
18753;DHT22;9505;50.882;5.350;2023-07-08T12:23:46;37.20;71.90
18753;DHT22;9505;50.882;5.350;2023-07-08T12:26:12;37.00;68.70
18753;DHT22;9505;50.882;5.350;2023-07-08T12:28:39;37.30;72.00
18753;DHT22;9505;50.882;5.350;2023-07-08T12:31:20;37.50;72.90
18753;DHT22;9505;50.882;5.350;2023-07-08T12:33:46;37.60;69.40
18753;DHT22;9505;50.882;5.350;2023-07-08T12:36:26;37.60;74.00
18753;DHT22;9505;50.882;5.350;2023-07-08T12:38:54;37.70;73.90
18753;DHT22;9505;50.882;5.350;2023-07-08T12:41:22;37.50;68.50
18753;DHT22;9505;50.882;5.350;2023-07-08T12:43:49;37.60;66.40
18753;DHT22;9505;50.882;5.350;2023-07-08T12:46:20;37.60;73.40
18753;DHT22;9505;50.882;5.350;2023-07-08T12:48:46;37.10;70.40
18753;DHT22;9505;50.882;5.350;2023-07-08T12:51:25;36.50;74.60
18753;DHT22;9505;50.882;5.350;2023-07-08T12:53:52;36.40;77.30
18753;DHT22;9505;50.882;5.350;2023-07-08T12:56:20;36.00;71.50
18753;DHT22;9505;50.882;5.350;2023-07-08T12:58:51;35.80;72.90
18753;DHT22;9505;50.882;5.350;2023-07-08T13:01:21;35.40;74.10
18753;DHT22;9505;50.882;5.350;2023-07-08T13:03:49;34.90;83.50
18753;DHT22;9505;50.882;5.350;2023-07-08T13:06:18;34.40;81.10
18753;DHT22;9505;50.882;5.350;2023-07-08T13:08:45;34.10;81.30
18753;DHT22;9505;50.882;5.350;2023-07-08T13:11:14;33.80;84.10
18753;DHT22;9505;50.882;5.350;2023-07-08T13:13:48;33.40;86.10
18753;DHT22;9505;50.882;5.350;2023-07-08T13:16:16;33.10;87.70
18753;DHT22;9505;50.882;5.350;2023-07-08T13:18:42;33.00;89.60
18753;DHT22;9505;50.882;5.350;2023-07-08T13:21:14;32.80;90.50
18753;DHT22;9505;50.882;5.350;2023-07-08T13:23:41;32.70;90.90
18753;DHT22;9505;50.882;5.350;2023-07-08T13:26:18;32.40;88.90
18753;DHT22;9505;50.882;5.350;2023-07-08T13:28:45;32.30;91.40
18753;DHT22;9505;50.882;5.350;2023-07-08T13:31:23;32.20;90.50
18753;DHT22;9505;50.882;5.350;2023-07-08T13:33:51;32.20;91.10
18753;DHT22;9505;50.882;5.350;2023-07-08T13:36:20;32.10;91.00
18753;DHT22;9505;50.882;5.350;2023-07-08T13:38:46;31.80;90.30
18753;DHT22;9505;50.882;5.350;2023-07-08T13:41:21;31.70;91.70
18753;DHT22;9505;50.882;5.350;2023-07-08T13:43:48;31.60;93.10
18753;DHT22;9505;50.882;5.350;2023-07-08T13:46:37;31.60;94.70
18753;DHT22;9505;50.882;5.350;2023-07-08T13:49:16;31.70;95.70
18753;DHT22;9505;50.882;5.350;2023-07-08T13:51:44;31.90;96.70
18753;DHT22;9505;50.882;5.350;2023-07-08T13:54:16;32.00;98.80
18753;DHT22;9505;50.882;5.350;2023-07-08T13:56:44;31.70;99.90
18753;DHT22;9505;50.882;5.350;2023-07-08T13:59:15;31.60;99.80
18753;DHT22;9505;50.882;5.350;2023-07-08T14:01:42;31.60;99.10
18753;DHT22;9505;50.882;5.350;2023-07-08T14:04:12;31.60;99.90
18753;DHT22;9505;50.882;5.350;2023-07-08T14:06:39;31.50;99.90
18753;DHT22;9505;50.882;5.350;2023-07-08T14:09:19;31.40;99.30
18753;DHT22;9505;50.882;5.350;2023-07-08T14:11:46;31.60;96.60
18753;DHT22;9505;50.882;5.350;2023-07-08T14:14:12;31.70;95.70
18753;DHT22;9505;50.882;5.350;2023-07-08T14:16:41;31.80;96.00
18753;DHT22;9505;50.882;5.350;2023-07-08T14:19:12;32.00;95.60
18753;DHT22;9505;50.882;5.350;2023-07-08T14:21:38;32.00;97.30
18753;DHT22;9505;50.882;5.350;2023-07-08T14:24:11;32.00;98.60
18753;DHT22;9505;50.882;5.350;2023-07-08T14:26:41;32.10;99.70
18753;DHT22;9505;50.882;5.350;2023-07-08T14:29:06;32.70;98.00
18753;DHT22;9505;50.882;5.350;2023-07-08T14:31:32;33.00;99.40
18753;DHT22;9505;50.882;5.350;2023-07-08T14:34:03;32.70;97.30
18753;DHT22;9505;50.882;5.350;2023-07-08T14:36:29;32.40;96.70
18753;DHT22;9505;50.882;5.350;2023-07-08T14:38:55;32.10;96.90
18753;DHT22;9505;50.882;5.350;2023-07-08T14:41:21;32.20;96.50
18753;DHT22;9505;50.882;5.350;2023-07-08T14:43:46;32.50;95.90
18753;DHT22;9505;50.882;5.350;2023-07-08T14:46:12;32.80;94.80
18753;DHT22;9505;50.882;5.350;2023-07-08T14:48:37;33.20;94.10
18753;DHT22;9505;50.882;5.350;2023-07-08T14:51:03;33.20;93.10
18753;DHT22;9505;50.882;5.350;2023-07-08T14:53:28;33.00;93.50
18753;DHT22;9505;50.882;5.350;2023-07-08T14:55:55;33.20;94.40
18753;DHT22;9505;50.882;5.350;2023-07-08T15:00:50;34.10;93.10
18753;DHT22;9505;50.882;5.350;2023-07-08T15:03:17;34.10;92.30
18753;DHT22;9505;50.882;5.350;2023-07-08T15:05:42;34.30;92.20
18753;DHT22;9505;50.882;5.350;2023-07-08T15:08:09;35.30;91.70
18753;DHT22;9505;50.882;5.350;2023-07-08T15:10:35;36.40;91.30
18753;DHT22;9505;50.882;5.350;2023-07-08T15:13:02;37.20;89.10
18753;DHT22;9505;50.882;5.350;2023-07-08T15:15:31;37.50;87.90
18753;DHT22;9505;50.882;5.350;2023-07-08T15:17:58;37.20;85.20
18753;DHT22;9505;50.882;5.350;2023-07-08T15:20:25;36.90;87.30
18753;DHT22;9505;50.882;5.350;2023-07-08T15:22:51;36.60;89.40
18753;DHT22;9505;50.882;5.350;2023-07-08T15:25:17;36.60;87.30
18753;DHT22;9505;50.882;5.350;2023-07-08T15:27:53;37.20;82.90
18753;DHT22;9505;50.882;5.350;2023-07-08T15:30:30;37.70;83.70
18753;DHT22;9505;50.882;5.350;2023-07-08T15:32:56;38.10;82.00
18753;DHT22;9505;50.882;5.350;2023-07-08T15:35:26;37.90;80.30
18753;DHT22;9505;50.882;5.350;2023-07-08T15:37:56;37.70;82.20
18753;DHT22;9505;50.882;5.350;2023-07-08T15:40:23;37.50;80.90
18753;DHT22;9505;50.882;5.350;2023-07-08T15:42:52;36.90;81.30
18753;DHT22;9505;50.882;5.350;2023-07-08T15:47:46;35.80;86.40
18753;DHT22;9505;50.882;5.350;2023-07-08T15:50:18;35.60;84.50
18753;DHT22;9505;50.882;5.350;2023-07-08T15:52:45;35.50;85.50
18753;DHT22;9505;50.882;5.350;2023-07-08T15:55:12;35.00;86.70
18753;DHT22;9505;50.882;5.350;2023-07-08T15:57:48;34.70;86.20
18753;DHT22;9505;50.882;5.350;2023-07-08T16:00:24;34.80;90.20
18753;DHT22;9505;50.882;5.350;2023-07-08T16:02:57;35.10;90.90
18753;DHT22;9505;50.882;5.350;2023-07-08T16:05:24;35.60;86.60
18753;DHT22;9505;50.882;5.350;2023-07-08T16:07:53;35.80;86.90
18753;DHT22;9505;50.882;5.350;2023-07-08T16:10:19;35.60;81.60
18753;DHT22;9505;50.882;5.350;2023-07-08T16:12:46;35.60;85.40
18753;DHT22;9505;50.882;5.350;2023-07-08T16:15:24;35.40;85.70
18753;DHT22;9505;50.882;5.350;2023-07-08T16:17:51;35.10;89.90
18753;DHT22;9505;50.882;5.350;2023-07-08T16:20:22;34.70;92.30
18753;DHT22;9505;50.882;5.350;2023-07-08T16:22:48;34.20;91.70
18753;DHT22;9505;50.882;5.350;2023-07-08T16:25:19;34.00;92.00
18753;DHT22;9505;50.882;5.350;2023-07-08T16:27:48;34.10;90.80
18753;DHT22;9505;50.882;5.350;2023-07-08T16:30:18;33.90;93.70
18753;DHT22;9505;50.882;5.350;2023-07-08T16:32:44;33.80;94.40
18753;DHT22;9505;50.882;5.350;2023-07-08T16:35:11;34.30;94.50
18753;DHT22;9505;50.882;5.350;2023-07-08T16:37:38;34.50;93.60
18753;DHT22;9505;50.882;5.350;2023-07-08T16:40:05;35.00;91.20
18753;DHT22;9505;50.882;5.350;2023-07-08T16:42:34;35.40;91.90
18753;DHT22;9505;50.882;5.350;2023-07-08T16:45:00;35.60;93.80
18753;DHT22;9505;50.882;5.350;2023-07-08T16:47:26;35.30;94.20
18753;DHT22;9505;50.882;5.350;2023-07-08T16:49:51;34.90;91.30
18753;DHT22;9505;50.882;5.350;2023-07-08T16:52:17;35.00;91.00
18753;DHT22;9505;50.882;5.350;2023-07-08T16:54:43;34.90;86.00
18753;DHT22;9505;50.882;5.350;2023-07-08T16:57:09;35.10;89.60
18753;DHT22;9505;50.882;5.350;2023-07-08T16:59:37;35.30;90.10
18753;DHT22;9505;50.882;5.350;2023-07-08T17:02:13;35.50;89.30
18753;DHT22;9505;50.882;5.350;2023-07-08T17:04:44;36.00;89.80
18753;DHT22;9505;50.882;5.350;2023-07-08T17:07:12;35.90;88.40
18753;DHT22;9505;50.882;5.350;2023-07-08T17:09:39;35.80;87.90
18753;DHT22;9505;50.882;5.350;2023-07-08T17:12:06;35.90;90.00
18753;DHT22;9505;50.882;5.350;2023-07-08T17:14:33;36.30;90.10